sensor_id;sensor_type;location;lat;lon;timestamp;P1;durP1;ratioP1;P2;durP2;ratioP2
82034;SDS011;71599;49.892;18.914;2023-12-20T00:00:39;6.20;;;3.97;;
82034;SDS011;71599;49.892;18.914;2023-12-20T00:06:01;10.38;;;4.32;;
82034;SDS011;71599;49.892;18.914;2023-12-20T00:11:02;5.25;;;3.47;;
82034;SDS011;71599;49.892;18.914;2023-12-20T00:16:03;8.88;;;3.65;;
82034;SDS011;71599;49.892;18.914;2023-12-20T00:26:07;8.63;;;4.05;;
82034;SDS011;71599;49.892;18.914;2023-12-20T00:31:08;4.57;;;3.47;;
82034;SDS011;71599;49.892;18.914;2023-12-20T00:36:10;7.00;;;3.42;;
82034;SDS011;71599;49.892;18.914;2023-12-20T00:41:11;5.53;;;2.90;;
82034;SDS011;71599;49.892;18.914;2023-12-20T00:46:12;6.50;;;4.13;;
82034;SDS011;71599;49.892;18.914;2023-12-20T00:51:15;4.72;;;2.53;;
82034;SDS011;71599;49.892;18.914;2023-12-20T00:56:16;4.80;;;2.90;;
82034;SDS011;71599;49.892;18.914;2023-12-20T01:07:15;4.25;;;3.20;;
82034;SDS011;71599;49.892;18.914;2023-12-20T01:12:16;4.72;;;2.50;;
82034;SDS011;71599;49.892;18.914;2023-12-20T01:17:17;4.72;;;2.95;;
82034;SDS011;71599;49.892;18.914;2023-12-20T01:22:19;4.03;;;3.25;;
82034;SDS011;71599;49.892;18.914;2023-12-20T01:27:20;5.80;;;3.47;;
82034;SDS011;71599;49.892;18.914;2023-12-20T01:32:21;6.03;;;3.85;;
82034;SDS011;71599;49.892;18.914;2023-12-20T01:37:23;5.07;;;3.83;;
82034;SDS011;71599;49.892;18.914;2023-12-20T01:42:24;6.88;;;3.83;;
82034;SDS011;71599;49.892;18.914;2023-12-20T01:47:25;5.13;;;3.60;;
82034;SDS011;71599;49.892;18.914;2023-12-20T01:52:28;6.28;;;3.70;;
82034;SDS011;71599;49.892;18.914;2023-12-20T01:57:30;5.13;;;3.90;;
82034;SDS011;71599;49.892;18.914;2023-12-20T02:02:31;6.97;;;4.05;;
82034;SDS011;71599;49.892;18.914;2023-12-20T02:07:35;5.70;;;4.13;;
82034;SDS011;71599;49.892;18.914;2023-12-20T02:12:36;8.07;;;4.18;;
82034;SDS011;71599;49.892;18.914;2023-12-20T02:17:37;5.70;;;4.22;;
82034;SDS011;71599;49.892;18.914;2023-12-20T02:22:41;5.13;;;3.90;;
82034;SDS011;71599;49.892;18.914;2023-12-20T02:27:42;5.95;;;3.97;;
82034;SDS011;71599;49.892;18.914;2023-12-20T02:37:46;4.78;;;3.55;;
82034;SDS011;71599;49.892;18.914;2023-12-20T02:42:47;5.82;;;4.13;;
82034;SDS011;71599;49.892;18.914;2023-12-20T02:47:48;7.53;;;4.15;;
82034;SDS011;71599;49.892;18.914;2023-12-20T02:52:50;6.65;;;3.75;;
82034;SDS011;71599;49.892;18.914;2023-12-20T02:57:51;5.30;;;4.05;;
82034;SDS011;71599;49.892;18.914;2023-12-20T03:02:52;8.18;;;4.15;;
82034;SDS011;71599;49.892;18.914;2023-12-20T03:07:55;5.85;;;3.67;;
82034;SDS011;71599;49.892;18.914;2023-12-20T03:12:56;7.05;;;4.15;;
82034;SDS011;71599;49.892;18.914;2023-12-20T03:17:57;7.32;;;4.13;;
82034;SDS011;71599;49.892;18.914;2023-12-20T03:22:59;6.45;;;4.18;;
82034;SDS011;71599;49.892;18.914;2023-12-20T03:28:00;6.10;;;3.88;;
82034;SDS011;71599;49.892;18.914;2023-12-20T03:33:01;5.60;;;3.90;;
82034;SDS011;71599;49.892;18.914;2023-12-20T03:38:04;6.90;;;4.22;;
82034;SDS011;71599;49.892;18.914;2023-12-20T03:43:05;6.13;;;3.67;;
82034;SDS011;71599;49.892;18.914;2023-12-20T03:48:06;6.15;;;3.90;;
82034;SDS011;71599;49.892;18.914;2023-12-20T03:53:09;6.80;;;4.72;;
82034;SDS011;71599;49.892;18.914;2023-12-20T03:58:10;8.38;;;4.32;;
82034;SDS011;71599;49.892;18.914;2023-12-20T04:03:11;6.75;;;5.10;;
82034;SDS011;71599;49.892;18.914;2023-12-20T04:08:13;8.00;;;5.30;;
82034;SDS011;71599;49.892;18.914;2023-12-20T04:13:14;6.38;;;4.32;;
82034;SDS011;71599;49.892;18.914;2023-12-20T04:18:15;7.35;;;4.38;;
82034;SDS011;71599;49.892;18.914;2023-12-20T04:23:18;7.45;;;4.78;;
82034;SDS011;71599;49.892;18.914;2023-12-20T04:28:19;7.70;;;4.25;;
82034;SDS011;71599;49.892;18.914;2023-12-20T04:33:20;7.30;;;5.20;;
82034;SDS011;71599;49.892;18.914;2023-12-20T04:38:22;8.18;;;4.75;;
82034;SDS011;71599;49.892;18.914;2023-12-20T04:43:23;8.25;;;4.50;;
82034;SDS011;71599;49.892;18.914;2023-12-20T04:48:24;6.32;;;4.47;;
82034;SDS011;71599;49.892;18.914;2023-12-20T04:53:26;8.07;;;5.18;;
82034;SDS011;71599;49.892;18.914;2023-12-20T04:58:27;8.85;;;5.45;;
82034;SDS011;71599;49.892;18.914;2023-12-20T05:03:28;8.43;;;5.03;;
82034;SDS011;71599;49.892;18.914;2023-12-20T05:08:31;9.65;;;4.65;;
82034;SDS011;71599;49.892;18.914;2023-12-20T05:13:32;10.77;;;6.30;;
82034;SDS011;71599;49.892;18.914;2023-12-20T05:18:33;7.75;;;4.63;;
82034;SDS011;71599;49.892;18.914;2023-12-20T05:23:35;7.78;;;4.13;;
82034;SDS011;71599;49.892;18.914;2023-12-20T05:28:36;7.38;;;4.00;;
82034;SDS011;71599;49.892;18.914;2023-12-20T05:33:37;6.47;;;4.45;;
82034;SDS011;71599;49.892;18.914;2023-12-20T05:38:40;6.53;;;4.40;;
82034;SDS011;71599;49.892;18.914;2023-12-20T05:43:41;7.10;;;4.20;;
82034;SDS011;71599;49.892;18.914;2023-12-20T05:48:42;6.50;;;3.67;;
82034;SDS011;71599;49.892;18.914;2023-12-20T05:53:44;8.68;;;5.18;;
82034;SDS011;71599;49.892;18.914;2023-12-20T05:58:45;9.13;;;5.70;;
82034;SDS011;71599;49.892;18.914;2023-12-20T06:03:46;8.15;;;5.35;;
82034;SDS011;71599;49.892;18.914;2023-12-20T06:08:49;8.95;;;6.25;;
82034;SDS011;71599;49.892;18.914;2023-12-20T06:13:50;9.55;;;6.03;;
82034;SDS011;71599;49.892;18.914;2023-12-20T06:18:51;8.98;;;6.10;;
82034;SDS011;71599;49.892;18.914;2023-12-20T06:23:53;10.98;;;7.32;;
82034;SDS011;71599;49.892;18.914;2023-12-20T06:28:54;11.18;;;8.05;;
82034;SDS011;71599;49.892;18.914;2023-12-20T06:33:55;11.45;;;7.57;;
82034;SDS011;71599;49.892;18.914;2023-12-20T06:38:57;14.55;;;7.97;;
82034;SDS011;71599;49.892;18.914;2023-12-20T06:43:58;10.65;;;7.72;;
82034;SDS011;71599;49.892;18.914;2023-12-20T06:48:59;12.18;;;6.93;;
82034;SDS011;71599;49.892;18.914;2023-12-20T06:54:02;8.90;;;5.93;;
82034;SDS011;71599;49.892;18.914;2023-12-20T06:59:03;10.55;;;6.00;;
82034;SDS011;71599;49.892;18.914;2023-12-20T07:04:04;10.23;;;5.88;;
82034;SDS011;71599;49.892;18.914;2023-12-20T07:09:06;9.35;;;6.22;;
82034;SDS011;71599;49.892;18.914;2023-12-20T07:14:07;11.45;;;7.28;;
82034;SDS011;71599;49.892;18.914;2023-12-20T07:19:09;9.55;;;5.45;;
82034;SDS011;71599;49.892;18.914;2023-12-20T07:24:11;11.85;;;6.55;;
82034;SDS011;71599;49.892;18.914;2023-12-20T07:29:12;9.20;;;6.35;;
82034;SDS011;71599;49.892;18.914;2023-12-20T07:34:13;10.18;;;5.90;;
82034;SDS011;71599;49.892;18.914;2023-12-20T07:39:16;11.70;;;6.80;;
82034;SDS011;71599;49.892;18.914;2023-12-20T07:44:17;9.93;;;6.55;;
82034;SDS011;71599;49.892;18.914;2023-12-20T07:49:18;11.27;;;6.65;;
82034;SDS011;71599;49.892;18.914;2023-12-20T07:54:21;11.27;;;6.60;;
82034;SDS011;71599;49.892;18.914;2023-12-20T07:59:22;14.60;;;7.63;;
82034;SDS011;71599;49.892;18.914;2023-12-20T08:04:23;10.45;;;6.50;;
82034;SDS011;71599;49.892;18.914;2023-12-20T08:09:25;8.10;;;6.18;;
82034;SDS011;71599;49.892;18.914;2023-12-20T08:14:26;12.55;;;7.05;;
82034;SDS011;71599;49.892;18.914;2023-12-20T08:19:28;11.48;;;7.55;;
82034;SDS011;71599;49.892;18.914;2023-12-20T08:24:31;16.00;;;8.50;;
82034;SDS011;71599;49.892;18.914;2023-12-20T08:29:31;13.10;;;7.25;;
82034;SDS011;71599;49.892;18.914;2023-12-20T08:34:32;10.50;;;5.55;;
82034;SDS011;71599;49.892;18.914;2023-12-20T08:39:35;16.48;;;9.48;;
82034;SDS011;71599;49.892;18.914;2023-12-20T08:44:36;9.68;;;4.82;;
82034;SDS011;71599;49.892;18.914;2023-12-20T08:49:37;14.35;;;6.55;;
82034;SDS011;71599;49.892;18.914;2023-12-20T08:54:39;24.33;;;9.57;;
82034;SDS011;71599;49.892;18.914;2023-12-20T08:59:40;13.50;;;7.45;;
82034;SDS011;71599;49.892;18.914;2023-12-20T09:04:41;10.38;;;5.15;;
82034;SDS011;71599;49.892;18.914;2023-12-20T09:09:44;8.60;;;4.75;;
82034;SDS011;71599;49.892;18.914;2023-12-20T09:14:45;7.05;;;4.75;;
82034;SDS011;71599;49.892;18.914;2023-12-20T09:19:46;7.90;;;4.05;;
82034;SDS011;71599;49.892;18.914;2023-12-20T09:24:48;5.88;;;4.00;;
82034;SDS011;71599;49.892;18.914;2023-12-20T09:29:49;5.13;;;3.40;;
82034;SDS011;71599;49.892;18.914;2023-12-20T09:34:50;16.40;;;8.20;;
82034;SDS011;71599;49.892;18.914;2023-12-20T09:39:53;7.78;;;5.00;;
82034;SDS011;71599;49.892;18.914;2023-12-20T09:44:54;4.20;;;3.15;;
82034;SDS011;71599;49.892;18.914;2023-12-20T09:49:57;9.55;;;5.10;;
82034;SDS011;71599;49.892;18.914;2023-12-20T09:54:59;5.32;;;2.90;;
82034;SDS011;71599;49.892;18.914;2023-12-20T10:00:01;5.70;;;3.65;;
82034;SDS011;71599;49.892;18.914;2023-12-20T10:05:03;6.18;;;4.10;;
82034;SDS011;71599;49.892;18.914;2023-12-20T10:10:10;6.57;;;4.32;;
82034;SDS011;71599;49.892;18.914;2023-12-20T10:15:12;6.43;;;4.53;;
82034;SDS011;71599;49.892;18.914;2023-12-20T10:20:13;5.82;;;3.80;;
82034;SDS011;71599;49.892;18.914;2023-12-20T10:30:17;8.65;;;4.80;;
82034;SDS011;71599;49.892;18.914;2023-12-20T10:35:19;11.27;;;5.28;;
82034;SDS011;71599;49.892;18.914;2023-12-20T10:40:21;6.10;;;3.83;;
82034;SDS011;71599;49.892;18.914;2023-12-20T10:45:22;5.93;;;3.80;;
82034;SDS011;71599;49.892;18.914;2023-12-20T10:50:23;9.50;;;4.80;;
82034;SDS011;71599;49.892;18.914;2023-12-20T10:55:27;8.13;;;4.95;;
82034;SDS011;71599;49.892;18.914;2023-12-20T11:00:28;8.68;;;5.22;;
82034;SDS011;71599;49.892;18.914;2023-12-20T11:05:30;7.10;;;3.45;;
82034;SDS011;71599;49.892;18.914;2023-12-20T11:10:39;12.93;;;5.93;;
82034;SDS011;71599;49.892;18.914;2023-12-20T11:15:48;7.85;;;5.03;;
82034;SDS011;71599;49.892;18.914;2023-12-20T11:20:50;6.88;;;4.00;;
82034;SDS011;71599;49.892;18.914;2023-12-20T11:25:53;13.00;;;6.40;;
82034;SDS011;71599;49.892;18.914;2023-12-20T11:30:55;9.60;;;4.97;;
82034;SDS011;71599;49.892;18.914;2023-12-20T11:35:58;13.27;;;6.00;;
82034;SDS011;71599;49.892;18.914;2023-12-20T11:41:04;14.52;;;7.15;;
82034;SDS011;71599;49.892;18.914;2023-12-20T11:46:06;9.70;;;4.45;;
82034;SDS011;71599;49.892;18.914;2023-12-20T11:51:09;7.72;;;4.30;;
82034;SDS011;71599;49.892;18.914;2023-12-20T11:56:12;9.68;;;4.78;;
82034;SDS011;71599;49.892;18.914;2023-12-20T12:01:13;10.32;;;4.60;;
82034;SDS011;71599;49.892;18.914;2023-12-20T12:06:14;14.77;;;6.32;;
82034;SDS011;71599;49.892;18.914;2023-12-20T12:11:16;9.48;;;5.63;;
82034;SDS011;71599;49.892;18.914;2023-12-20T12:16:18;12.35;;;6.30;;
82034;SDS011;71599;49.892;18.914;2023-12-20T12:21:20;10.25;;;5.40;;
82034;SDS011;71599;49.892;18.914;2023-12-20T12:26:24;11.57;;;5.57;;
82034;SDS011;71599;49.892;18.914;2023-12-20T12:31:25;24.92;;;7.88;;
82034;SDS011;71599;49.892;18.914;2023-12-20T12:36:27;22.95;;;7.97;;
82034;SDS011;71599;49.892;18.914;2023-12-20T12:41:30;8.60;;;6.22;;
82034;SDS011;71599;49.892;18.914;2023-12-20T12:46:31;17.75;;;8.02;;
82034;SDS011;71599;49.892;18.914;2023-12-20T12:51:32;19.73;;;9.93;;
82034;SDS011;71599;49.892;18.914;2023-12-20T12:56:34;7.85;;;4.78;;
82034;SDS011;71599;49.892;18.914;2023-12-20T13:01:35;14.55;;;5.95;;
82034;SDS011;71599;49.892;18.914;2023-12-20T13:06:36;11.05;;;6.18;;
82034;SDS011;71599;49.892;18.914;2023-12-20T13:16:40;39.40;;;12.80;;
82034;SDS011;71599;49.892;18.914;2023-12-20T13:21:41;16.08;;;6.25;;
82034;SDS011;71599;49.892;18.914;2023-12-20T13:26:44;13.07;;;5.82;;
82034;SDS011;71599;49.892;18.914;2023-12-20T13:31:45;15.02;;;6.57;;
82034;SDS011;71599;49.892;18.914;2023-12-20T13:36:46;15.10;;;7.15;;
82034;SDS011;71599;49.892;18.914;2023-12-20T13:41:48;9.73;;;5.80;;
82034;SDS011;71599;49.892;18.914;2023-12-20T13:46:50;31.58;;;12.32;;
82034;SDS011;71599;49.892;18.914;2023-12-20T13:51:51;10.10;;;6.32;;
82034;SDS011;71599;49.892;18.914;2023-12-20T13:56:53;8.70;;;4.85;;
82034;SDS011;71599;49.892;18.914;2023-12-20T14:01:54;9.65;;;6.22;;
82034;SDS011;71599;49.892;18.914;2023-12-20T14:06:55;9.35;;;5.03;;
82034;SDS011;71599;49.892;18.914;2023-12-20T14:11:58;9.57;;;5.93;;
82034;SDS011;71599;49.892;18.914;2023-12-20T14:16:59;11.77;;;6.15;;
82034;SDS011;71599;49.892;18.914;2023-12-20T14:22:00;7.13;;;4.63;;
82034;SDS011;71599;49.892;18.914;2023-12-20T14:27:02;13.68;;;6.70;;
82034;SDS011;71599;49.892;18.914;2023-12-20T14:32:04;12.35;;;6.82;;
82034;SDS011;71599;49.892;18.914;2023-12-20T14:37:05;22.77;;;11.45;;
82034;SDS011;71599;49.892;18.914;2023-12-20T14:42:08;13.13;;;6.93;;
82034;SDS011;71599;49.892;18.914;2023-12-20T14:47:09;26.65;;;12.23;;
82034;SDS011;71599;49.892;18.914;2023-12-20T14:52:10;14.80;;;7.80;;
82034;SDS011;71599;49.892;18.914;2023-12-20T14:57:12;8.88;;;5.50;;
82034;SDS011;71599;49.892;18.914;2023-12-20T15:02:13;10.95;;;6.05;;
82034;SDS011;71599;49.892;18.914;2023-12-20T15:07:15;12.07;;;6.60;;
82034;SDS011;71599;49.892;18.914;2023-12-20T15:17:18;9.48;;;4.82;;
82034;SDS011;71599;49.892;18.914;2023-12-20T15:22:19;12.45;;;6.55;;
82034;SDS011;71599;49.892;18.914;2023-12-20T15:27:22;10.27;;;5.75;;
82034;SDS011;71599;49.892;18.914;2023-12-20T15:32:23;10.00;;;6.05;;
82034;SDS011;71599;49.892;18.914;2023-12-20T15:37:24;19.95;;;9.07;;
82034;SDS011;71599;49.892;18.914;2023-12-20T15:42:26;18.10;;;10.00;;
82034;SDS011;71599;49.892;18.914;2023-12-20T15:47:27;14.63;;;6.88;;
82034;SDS011;71599;49.892;18.914;2023-12-20T15:52:28;10.25;;;6.50;;
82034;SDS011;71599;49.892;18.914;2023-12-20T15:57:31;11.35;;;6.13;;
82034;SDS011;71599;49.892;18.914;2023-12-20T16:02:32;10.93;;;5.50;;
82034;SDS011;71599;49.892;18.914;2023-12-20T16:12:36;9.35;;;6.45;;
82034;SDS011;71599;49.892;18.914;2023-12-20T16:17:38;19.08;;;7.93;;
82034;SDS011;71599;49.892;18.914;2023-12-20T16:22:39;10.45;;;6.28;;
82034;SDS011;71599;49.892;18.914;2023-12-20T16:27:43;7.07;;;4.63;;
82034;SDS011;71599;49.892;18.914;2023-12-20T16:32:45;15.30;;;7.40;;
82034;SDS011;71599;49.892;18.914;2023-12-20T16:37:47;16.80;;;8.23;;
82034;SDS011;71599;49.892;18.914;2023-12-20T16:42:49;23.10;;;15.07;;
82034;SDS011;71599;49.892;18.914;2023-12-20T16:47:50;16.20;;;8.82;;
82034;SDS011;71599;49.892;18.914;2023-12-20T16:52:52;14.30;;;8.05;;
82034;SDS011;71599;49.892;18.914;2023-12-20T16:57:54;12.05;;;6.05;;
82034;SDS011;71599;49.892;18.914;2023-12-20T17:02:56;11.98;;;7.68;;
82034;SDS011;71599;49.892;18.914;2023-12-20T17:07:57;19.63;;;9.70;;
82034;SDS011;71599;49.892;18.914;2023-12-20T17:13:00;23.70;;;9.30;;
82034;SDS011;71599;49.892;18.914;2023-12-20T17:18:01;17.75;;;8.10;;
82034;SDS011;71599;49.892;18.914;2023-12-20T17:23:03;22.50;;;10.38;;
82034;SDS011;71599;49.892;18.914;2023-12-20T17:28:06;19.77;;;9.90;;
82034;SDS011;71599;49.892;18.914;2023-12-20T17:33:07;22.00;;;10.85;;
82034;SDS011;71599;49.892;18.914;2023-12-20T17:38:08;20.23;;;10.05;;
82034;SDS011;71599;49.892;18.914;2023-12-20T17:43:13;14.13;;;8.90;;
82034;SDS011;71599;49.892;18.914;2023-12-20T17:48:15;14.70;;;8.10;;
82034;SDS011;71599;49.892;18.914;2023-12-20T17:53:16;17.17;;;10.07;;
82034;SDS011;71599;49.892;18.914;2023-12-20T17:58:19;8.57;;;5.72;;
82034;SDS011;71599;49.892;18.914;2023-12-20T18:03:20;9.75;;;4.78;;
82034;SDS011;71599;49.892;18.914;2023-12-20T18:08:21;10.52;;;4.93;;
82034;SDS011;71599;49.892;18.914;2023-12-20T18:13:24;9.60;;;5.18;;
82034;SDS011;71599;49.892;18.914;2023-12-20T18:18:25;8.40;;;5.32;;
82034;SDS011;71599;49.892;18.914;2023-12-20T18:23:26;8.43;;;4.18;;
82034;SDS011;71599;49.892;18.914;2023-12-20T18:28:36;7.53;;;4.75;;
82034;SDS011;71599;49.892;18.914;2023-12-20T18:33:41;7.78;;;3.50;;
82034;SDS011;71599;49.892;18.914;2023-12-20T18:38:42;8.43;;;3.80;;
82034;SDS011;71599;49.892;18.914;2023-12-20T18:43:48;9.93;;;4.53;;
82034;SDS011;71599;49.892;18.914;2023-12-20T18:48:52;10.52;;;4.97;;
82034;SDS011;71599;49.892;18.914;2023-12-20T18:53:55;8.35;;;4.57;;
82034;SDS011;71599;49.892;18.914;2023-12-20T18:59:09;6.72;;;4.03;;
82034;SDS011;71599;49.892;18.914;2023-12-20T19:04:11;10.55;;;3.85;;
82034;SDS011;71599;49.892;18.914;2023-12-20T19:09:13;8.63;;;4.78;;
82034;SDS011;71599;49.892;18.914;2023-12-20T19:14:17;6.80;;;4.93;;
82034;SDS011;71599;49.892;18.914;2023-12-20T19:19:18;6.53;;;3.80;;
82034;SDS011;71599;49.892;18.914;2023-12-20T19:24:23;7.75;;;3.00;;
82034;SDS011;71599;49.892;18.914;2023-12-20T19:29:33;16.23;;;5.53;;
82034;SDS011;71599;49.892;18.914;2023-12-20T19:34:34;19.23;;;6.97;;
82034;SDS011;71599;49.892;18.914;2023-12-20T19:39:35;4.25;;;2.70;;
82034;SDS011;71599;49.892;18.914;2023-12-20T19:44:40;4.78;;;2.67;;
82034;SDS011;71599;49.892;18.914;2023-12-20T19:49:42;4.55;;;2.92;;
82034;SDS011;71599;49.892;18.914;2023-12-20T19:59:47;5.95;;;2.42;;
82034;SDS011;71599;49.892;18.914;2023-12-20T20:04:53;5.00;;;2.78;;
82034;SDS011;71599;49.892;18.914;2023-12-20T20:09:55;6.63;;;3.50;;
82034;SDS011;71599;49.892;18.914;2023-12-20T20:14:58;4.25;;;2.90;;
82034;SDS011;71599;49.892;18.914;2023-12-20T20:20:01;5.88;;;2.67;;
82034;SDS011;71599;49.892;18.914;2023-12-20T20:30:08;6.53;;;2.85;;
82034;SDS011;71599;49.892;18.914;2023-12-20T20:35:10;4.65;;;2.72;;
82034;SDS011;71599;49.892;18.914;2023-12-20T20:40:12;4.35;;;2.45;;
82034;SDS011;71599;49.892;18.914;2023-12-20T20:45:16;4.82;;;2.33;;
82034;SDS011;71599;49.892;18.914;2023-12-20T20:50:18;3.80;;;2.70;;
82034;SDS011;71599;49.892;18.914;2023-12-20T21:00:23;3.72;;;2.22;;
82034;SDS011;71599;49.892;18.914;2023-12-20T21:05:24;4.00;;;2.00;;
82034;SDS011;71599;49.892;18.914;2023-12-20T21:10:26;4.18;;;2.05;;
82034;SDS011;71599;49.892;18.914;2023-12-20T21:20:31;3.00;;;2.00;;
82034;SDS011;71599;49.892;18.914;2023-12-20T21:25:32;3.35;;;2.08;;
82034;SDS011;71599;49.892;18.914;2023-12-20T21:30:36;3.85;;;1.88;;
82034;SDS011;71599;49.892;18.914;2023-12-20T21:35:38;3.95;;;2.30;;
82034;SDS011;71599;49.892;18.914;2023-12-20T21:40:39;3.08;;;1.77;;
82034;SDS011;71599;49.892;18.914;2023-12-20T21:45:41;3.80;;;2.00;;
82034;SDS011;71599;49.892;18.914;2023-12-20T21:50:42;5.47;;;2.15;;
82034;SDS011;71599;49.892;18.914;2023-12-20T22:00:52;2.50;;;1.50;;
82034;SDS011;71599;49.892;18.914;2023-12-20T22:05:53;3.17;;;1.73;;
82034;SDS011;71599;49.892;18.914;2023-12-20T22:10:54;3.83;;;1.80;;
82034;SDS011;71599;49.892;18.914;2023-12-20T22:15:57;3.55;;;1.80;;
82034;SDS011;71599;49.892;18.914;2023-12-20T22:20:58;2.50;;;1.83;;
82034;SDS011;71599;49.892;18.914;2023-12-20T22:25:59;2.55;;;1.98;;
82034;SDS011;71599;49.892;18.914;2023-12-20T22:31:01;2.33;;;1.45;;
82034;SDS011;71599;49.892;18.914;2023-12-20T22:36:03;3.03;;;1.70;;
82034;SDS011;71599;49.892;18.914;2023-12-20T22:51:07;3.65;;;1.63;;
82034;SDS011;71599;49.892;18.914;2023-12-20T22:56:08;3.50;;;1.65;;
82034;SDS011;71599;49.892;18.914;2023-12-20T23:01:10;1.58;;;1.40;;
82034;SDS011;71599;49.892;18.914;2023-12-20T23:06:11;4.35;;;1.70;;
82034;SDS011;71599;49.892;18.914;2023-12-20T23:11:13;6.60;;;1.80;;
82034;SDS011;71599;49.892;18.914;2023-12-20T23:16:15;5.00;;;2.35;;
82034;SDS011;71599;49.892;18.914;2023-12-20T23:21:16;3.15;;;1.52;;
82034;SDS011;71599;49.892;18.914;2023-12-20T23:26:17;2.42;;;1.50;;
82034;SDS011;71599;49.892;18.914;2023-12-20T23:31:22;2.45;;;1.50;;
82034;SDS011;71599;49.892;18.914;2023-12-20T23:36:24;2.10;;;1.20;;
82034;SDS011;71599;49.892;18.914;2023-12-20T23:41:25;2.67;;;1.60;;
82034;SDS011;71599;49.892;18.914;2023-12-20T23:46:27;2.83;;;1.63;;
82034;SDS011;71599;49.892;18.914;2023-12-20T23:51:28;1.88;;;1.50;;
82034;SDS011;71599;49.892;18.914;2023-12-20T23:56:29;4.30;;;1.90;;
